AFL3704 ULLI-UWOR
Flight info
| Callsign | AFL3704 |
|---|---|
| Flight time | 2h 45m |
| Altitude | 33000 |
| Route | SUGIN T873 VUZPU T490 EZMUB T439 USTOK T464 BMK T173 MOF T750 LALEP |
| Aircraft | A21N/M-SBDFGM3RWXY/LB1 |
Departure
| Time | 2026-05-07 10:58 |
|---|---|
| Airport | Pulkovo Airport (ULLI) |
Arrival
| Time | 2026-05-07 13:43 |
|---|---|
| Airport | Orsk Airport (UWOR) |
| Time | Latitude | Longitude | Altitude | Speed | Heading |
|---|---|---|---|---|---|
| 2026-05-07 10:35 | 59.80113 | 30.26477 | 85 ft | 0 kts | 285° |
| 2026-05-07 10:53 | 59.80113 | 30.26476 | 85 ft | 0 kts | 285° |
| 2026-05-07 10:53 | 59.80116 | 30.26455 | 86 ft | 3 kts | 286° |
| 2026-05-07 10:54 | 59.80129 | 30.26386 | 87 ft | 6 kts | 295° |
| 2026-05-07 10:54 | 59.80186 | 30.26370 | 86 ft | 12 kts | 12° |
| 2026-05-07 10:54 | 59.80288 | 30.26434 | 83 ft | 18 kts | 18° |
| 2026-05-07 10:54 | 59.80430 | 30.26471 | 79 ft | 21 kts | 334° |
| 2026-05-07 10:55 | 59.80492 | 30.26219 | 81 ft | 20 kts | 286° |
| 2026-05-07 10:55 | 59.80536 | 30.25938 | 80 ft | 25 kts | 288° |
| 2026-05-07 10:55 | 59.80606 | 30.25465 | 82 ft | 43 kts | 285° |
| 2026-05-07 10:55 | 59.80690 | 30.24908 | 80 ft | 41 kts | 288° |
| 2026-05-07 10:56 | 59.80777 | 30.24609 | 77 ft | 20 kts | 343° |
| 2026-05-07 10:56 | 59.80925 | 30.24565 | 75 ft | 13 kts | 25° |
| 2026-05-07 10:56 | 59.80945 | 30.24729 | 75 ft | 5 kts | 107° |
| 2026-05-07 10:56 | 59.80945 | 30.24732 | 75 ft | 0 kts | 107° |
| 2026-05-07 10:57 | 59.80923 | 30.24876 | 77 ft | 41 kts | 106° |
| 2026-05-07 10:57 | 59.80766 | 30.25926 | 78 ft | 114 kts | 106° |
| 2026-05-07 10:57 | 59.80483 | 30.27860 | 129 ft | 167 kts | 105° |
| 2026-05-07 10:58 | 59.80151 | 30.30020 | 815 ft | 167 kts | 106° |
| 2026-05-07 10:58 | 59.79809 | 30.32214 | 1604 ft | 167 kts | 104° |
| 2026-05-07 10:58 | 59.79464 | 30.34472 | 2225 ft | 177 kts | 103° |
| 2026-05-07 10:58 | 59.79103 | 30.36892 | 2718 ft | 193 kts | 104° |
| 2026-05-07 10:59 | 59.78706 | 30.39560 | 3155 ft | 214 kts | 104° |
| 2026-05-07 10:59 | 59.78260 | 30.42549 | 3635 ft | 235 kts | 104° |
| 2026-05-07 10:59 | 59.77775 | 30.45782 | 4282 ft | 249 kts | 104° |
| 2026-05-07 10:59 | 59.77276 | 30.49090 | 5132 ft | 254 kts | 105° |
| 2026-05-07 11:00 | 59.76878 | 30.51723 | 5833 ft | 256 kts | 105° |
| 2026-05-07 11:00 | 59.76300 | 30.55547 | 6802 ft | 259 kts | 105° |
| 2026-05-07 11:00 | 59.75787 | 30.58990 | 7587 ft | 264 kts | 105° |
| 2026-05-07 11:00 | 59.75286 | 30.62488 | 8297 ft | 270 kts | 105° |
| 2026-05-07 11:01 | 59.74768 | 30.66145 | 9008 ft | 278 kts | 106° |
| 2026-05-07 11:01 | 59.74245 | 30.69836 | 9640 ft | 285 kts | 107° |
| 2026-05-07 11:01 | 59.73702 | 30.73623 | 10331 ft | 290 kts | 107° |
| 2026-05-07 11:01 | 59.73139 | 30.77545 | 10795 ft | 304 kts | 108° |
| 2026-05-07 11:02 | 59.72546 | 30.81641 | 11109 ft | 322 kts | 107° |
| 2026-05-07 11:02 | 59.71911 | 30.86030 | 11480 ft | 339 kts | 107° |
| 2026-05-07 11:02 | 59.71251 | 30.90568 | 12047 ft | 348 kts | 108° |
| 2026-05-07 11:02 | 59.70578 | 30.95201 | 12669 ft | 353 kts | 108° |
| 2026-05-07 11:03 | 59.69899 | 30.99866 | 13310 ft | 359 kts | 108° |
| 2026-05-07 11:03 | 59.69199 | 31.04665 | 13872 ft | 365 kts | 108° |
| 2026-05-07 11:03 | 59.68496 | 31.09473 | 14430 ft | 372 kts | 109° |
| 2026-05-07 11:03 | 59.67764 | 31.14459 | 15020 ft | 377 kts | 109° |
| 2026-05-07 11:04 | 59.67032 | 31.19424 | 15637 ft | 381 kts | 109° |
| 2026-05-07 11:04 | 59.66293 | 31.24439 | 16239 ft | 385 kts | 109° |
| 2026-05-07 11:04 | 59.65543 | 31.29497 | 16775 ft | 390 kts | 110° |
| 2026-05-07 11:04 | 59.64780 | 31.34622 | 17325 ft | 394 kts | 110° |
| 2026-05-07 11:05 | 59.64000 | 31.39852 | 17910 ft | 397 kts | 110° |
| 2026-05-07 11:05 | 59.63223 | 31.45049 | 18443 ft | 401 kts | 111° |
| 2026-05-07 11:05 | 59.62422 | 31.50378 | 18957 ft | 406 kts | 111° |
| 2026-05-07 11:05 | 59.61620 | 31.55702 | 19477 ft | 410 kts | 111° |
| 2026-05-07 11:06 | 59.60804 | 31.61101 | 19983 ft | 414 kts | 111° |
| 2026-05-07 11:06 | 59.59980 | 31.66536 | 20474 ft | 419 kts | 111° |
| 2026-05-07 11:06 | 59.59145 | 31.72056 | 20942 ft | 423 kts | 111° |
| 2026-05-07 11:06 | 59.58308 | 31.77576 | 21394 ft | 427 kts | 112° |
| 2026-05-07 11:07 | 59.57444 | 31.83235 | 21841 ft | 432 kts | 112° |
| 2026-05-07 11:07 | 59.56586 | 31.88851 | 22307 ft | 435 kts | 112° |
| 2026-05-07 11:07 | 59.55699 | 31.94608 | 22771 ft | 438 kts | 112° |
| 2026-05-07 11:07 | 59.54821 | 32.00293 | 23184 ft | 442 kts | 112° |
| 2026-05-07 11:08 | 59.53874 | 32.06068 | 23602 ft | 443 kts | 117° |
| 2026-05-07 11:08 | 59.52501 | 32.11458 | 24001 ft | 437 kts | 129° |
| 2026-05-07 11:08 | 59.50691 | 32.16088 | 24414 ft | 429 kts | 140° |
| 2026-05-07 11:08 | 59.48615 | 32.20238 | 24843 ft | 429 kts | 143° |
| 2026-05-07 11:09 | 59.46460 | 32.24349 | 25229 ft | 432 kts | 144° |
| 2026-05-07 11:09 | 59.44297 | 32.28465 | 25591 ft | 435 kts | 144° |
| 2026-05-07 11:09 | 59.42140 | 32.32592 | 25950 ft | 439 kts | 144° |
| 2026-05-07 11:09 | 59.39977 | 32.36758 | 26309 ft | 442 kts | 143° |
| 2026-05-07 11:10 | 59.37767 | 32.41024 | 26670 ft | 444 kts | 143° |
| 2026-05-07 11:10 | 59.35582 | 32.45247 | 27029 ft | 447 kts | 143° |
| 2026-05-07 11:10 | 59.33352 | 32.49552 | 27381 ft | 449 kts | 143° |
| 2026-05-07 11:10 | 59.31152 | 32.53804 | 27805 ft | 449 kts | 143° |
| 2026-05-07 11:11 | 59.28947 | 32.58062 | 28311 ft | 447 kts | 144° |
| 2026-05-07 11:11 | 59.26759 | 32.62277 | 28743 ft | 446 kts | 144° |
| 2026-05-07 11:11 | 59.24542 | 32.66536 | 29120 ft | 446 kts | 145° |
| 2026-05-07 11:11 | 59.22356 | 32.70742 | 29528 ft | 445 kts | 145° |
| 2026-05-07 11:12 | 59.20129 | 32.75022 | 29937 ft | 444 kts | 146° |
| 2026-05-07 11:12 | 59.17939 | 32.79217 | 30321 ft | 444 kts | 146° |
| 2026-05-07 11:12 | 59.15745 | 32.83401 | 30705 ft | 442 kts | 146° |
| 2026-05-07 11:12 | 59.13575 | 32.87530 | 31067 ft | 442 kts | 146° |
| 2026-05-07 11:13 | 59.11383 | 32.91685 | 31367 ft | 442 kts | 146° |
| 2026-05-07 11:13 | 59.09179 | 32.95856 | 31656 ft | 443 kts | 146° |
| 2026-05-07 11:13 | 59.06959 | 33.00055 | 31879 ft | 444 kts | 146° |
| 2026-05-07 11:13 | 59.04758 | 33.04208 | 32109 ft | 446 kts | 146° |
| 2026-05-07 11:14 | 59.02535 | 33.08399 | 32322 ft | 448 kts | 145° |
| 2026-05-07 11:14 | 59.00295 | 33.12611 | 32559 ft | 449 kts | 145° |
| 2026-05-07 11:14 | 58.98077 | 33.16777 | 32768 ft | 450 kts | 144° |
| 2026-05-07 11:14 | 58.95923 | 33.21248 | 32965 ft | 459 kts | 139° |
| 2026-05-07 11:15 | 58.92315 | 33.31551 | 32978 ft | 471 kts | 124° |
| 2026-05-07 11:15 | 58.89877 | 33.43471 | 32977 ft | 482 kts | 110° |
| 2026-05-07 11:16 | 58.88313 | 33.56040 | 32990 ft | 485 kts | 107° |
| 2026-05-07 11:16 | 58.87221 | 33.65194 | 32984 ft | 482 kts | 108° |
| 2026-05-07 11:17 | 58.83850 | 33.92363 | 32982 ft | 482 kts | 108° |
| 2026-05-07 11:18 | 58.82263 | 34.04834 | 32980 ft | 481 kts | 108° |
| 2026-05-07 11:18 | 58.80661 | 34.17313 | 32990 ft | 479 kts | 108° |
| 2026-05-07 11:19 | 58.79057 | 34.29709 | 32988 ft | 479 kts | 108° |
| 2026-05-07 11:19 | 58.77432 | 34.42146 | 32990 ft | 479 kts | 108° |
| 2026-05-07 11:20 | 58.75804 | 34.54493 | 32980 ft | 477 kts | 108° |
| 2026-05-07 11:20 | 58.74168 | 34.66819 | 32983 ft | 478 kts | 109° |
| 2026-05-07 11:21 | 58.72521 | 34.79182 | 32982 ft | 477 kts | 109° |
| 2026-05-07 11:21 | 58.70861 | 34.91481 | 32983 ft | 477 kts | 109° |
| 2026-05-07 11:22 | 58.69181 | 35.03836 | 32984 ft | 477 kts | 109° |
| 2026-05-07 11:22 | 58.67514 | 35.16016 | 32976 ft | 476 kts | 109° |
| 2026-05-07 11:23 | 58.66061 | 35.26542 | 32975 ft | 476 kts | 108° |
| 2026-05-07 11:23 | 58.64180 | 35.40104 | 32973 ft | 475 kts | 109° |
| 2026-05-07 11:24 | 58.62465 | 35.52328 | 32976 ft | 475 kts | 109° |
| 2026-05-07 11:24 | 58.60738 | 35.64563 | 32981 ft | 478 kts | 109° |
| 2026-05-07 11:25 | 58.58905 | 35.76793 | 32986 ft | 474 kts | 113° |
| 2026-05-07 11:25 | 58.56424 | 35.88289 | 32971 ft | 466 kts | 122° |
| 2026-05-07 11:26 | 58.53376 | 35.99122 | 32971 ft | 466 kts | 124° |
| 2026-05-07 11:26 | 58.50252 | 36.09972 | 32967 ft | 467 kts | 124° |
| 2026-05-07 11:27 | 58.47144 | 36.20790 | 32966 ft | 464 kts | 124° |
| 2026-05-07 11:27 | 58.44053 | 36.31539 | 32968 ft | 463 kts | 124° |
| 2026-05-07 11:28 | 58.40940 | 36.42314 | 32970 ft | 467 kts | 124° |
| 2026-05-07 11:28 | 58.37827 | 36.53040 | 32971 ft | 465 kts | 124° |
| 2026-05-07 11:29 | 58.34713 | 36.63730 | 32975 ft | 464 kts | 124° |
| 2026-05-07 11:29 | 58.31585 | 36.74439 | 32973 ft | 464 kts | 124° |
| 2026-05-07 11:30 | 58.28437 | 36.85166 | 32972 ft | 465 kts | 124° |
| 2026-05-07 11:30 | 58.25291 | 36.95812 | 32962 ft | 462 kts | 124° |
| 2026-05-07 11:31 | 58.22160 | 37.06376 | 32966 ft | 461 kts | 124° |
| 2026-05-07 11:31 | 58.19032 | 37.16879 | 32966 ft | 461 kts | 124° |
| 2026-05-07 11:32 | 58.14288 | 37.32696 | 32970 ft | 462 kts | 124° |
| 2026-05-07 11:33 | 58.11130 | 37.43165 | 32970 ft | 461 kts | 124° |
| 2026-05-07 11:33 | 58.07950 | 37.53655 | 32970 ft | 461 kts | 124° |
| 2026-05-07 11:34 | 58.04782 | 37.64080 | 32968 ft | 459 kts | 124° |
| 2026-05-07 11:34 | 58.01607 | 37.74494 | 32962 ft | 457 kts | 124° |
| 2026-05-07 11:35 | 57.98448 | 37.84811 | 32951 ft | 458 kts | 125° |
| 2026-05-07 11:35 | 57.95257 | 37.95171 | 32956 ft | 457 kts | 124° |
| 2026-05-07 11:36 | 57.92032 | 38.05586 | 32952 ft | 456 kts | 124° |
| 2026-05-07 11:36 | 57.88844 | 38.15826 | 32953 ft | 457 kts | 125° |
| 2026-05-07 11:37 | 57.85614 | 38.26081 | 32955 ft | 456 kts | 124° |
| 2026-05-07 11:37 | 57.82415 | 38.36225 | 32943 ft | 455 kts | 124° |
| 2026-05-07 11:38 | 57.79190 | 38.46447 | 32951 ft | 456 kts | 124° |
| 2026-05-07 11:38 | 57.75964 | 38.56643 | 32948 ft | 456 kts | 124° |
| 2026-05-07 11:39 | 57.72747 | 38.66754 | 32942 ft | 456 kts | 125° |
| 2026-05-07 11:39 | 57.69523 | 38.76887 | 32936 ft | 455 kts | 125° |
| 2026-05-07 11:40 | 57.66284 | 38.87010 | 32925 ft | 455 kts | 125° |
| 2026-05-07 11:40 | 57.63028 | 38.97131 | 32928 ft | 455 kts | 125° |
| 2026-05-07 11:41 | 57.59785 | 39.07166 | 32923 ft | 455 kts | 125° |
| 2026-05-07 11:41 | 57.56531 | 39.17180 | 32919 ft | 454 kts | 125° |
| 2026-05-07 11:42 | 57.53268 | 39.27188 | 32916 ft | 454 kts | 125° |
| 2026-05-07 11:42 | 57.49974 | 39.37251 | 32914 ft | 454 kts | 125° |
| 2026-05-07 11:43 | 57.46702 | 39.47194 | 32903 ft | 452 kts | 125° |
| 2026-05-07 11:43 | 57.43430 | 39.57111 | 32897 ft | 452 kts | 125° |
| 2026-05-07 11:44 | 57.40160 | 39.66975 | 32911 ft | 453 kts | 126° |
| 2026-05-07 11:44 | 57.36883 | 39.76841 | 32905 ft | 451 kts | 125° |
| 2026-05-07 11:45 | 57.33579 | 39.86745 | 32893 ft | 451 kts | 126° |
| 2026-05-07 11:45 | 57.30294 | 39.96527 | 32903 ft | 451 kts | 125° |
| 2026-05-07 11:46 | 57.26975 | 40.06381 | 32914 ft | 450 kts | 126° |
| 2026-05-07 11:46 | 57.23644 | 40.16217 | 32908 ft | 452 kts | 125° |
| 2026-05-07 11:47 | 57.20345 | 40.25923 | 32907 ft | 450 kts | 125° |
| 2026-05-07 11:47 | 57.17024 | 40.35647 | 32907 ft | 449 kts | 125° |
| 2026-05-07 11:48 | 57.13695 | 40.45363 | 32901 ft | 449 kts | 125° |
| 2026-05-07 11:48 | 57.10373 | 40.55013 | 32893 ft | 449 kts | 124° |
| 2026-05-07 11:49 | 57.07035 | 40.64685 | 32900 ft | 449 kts | 125° |
| 2026-05-07 11:49 | 57.03707 | 40.74304 | 32911 ft | 449 kts | 126° |
| 2026-05-07 11:50 | 57.00371 | 40.83909 | 32896 ft | 449 kts | 126° |
| 2026-05-07 11:50 | 56.96989 | 40.93583 | 32888 ft | 448 kts | 125° |
| 2026-05-07 11:51 | 56.93636 | 41.03140 | 32874 ft | 448 kts | 125° |
| 2026-05-07 11:51 | 56.90281 | 41.12671 | 32879 ft | 448 kts | 125° |
| 2026-05-07 11:52 | 56.86867 | 41.22251 | 32874 ft | 448 kts | 125° |
| 2026-05-07 11:52 | 56.83483 | 41.31717 | 32887 ft | 448 kts | 125° |
| 2026-05-07 11:53 | 56.80103 | 41.41179 | 32885 ft | 447 kts | 125° |
| 2026-05-07 11:53 | 56.76715 | 41.50634 | 32889 ft | 447 kts | 125° |
| 2026-05-07 11:54 | 56.73305 | 41.60123 | 32893 ft | 447 kts | 125° |
| 2026-05-07 11:54 | 56.69924 | 41.69500 | 32894 ft | 447 kts | 126° |
| 2026-05-07 11:55 | 56.66513 | 41.78952 | 32895 ft | 446 kts | 126° |
| 2026-05-07 11:55 | 56.63074 | 41.88419 | 32894 ft | 446 kts | 126° |
| 2026-05-07 11:56 | 56.59661 | 41.97772 | 32904 ft | 446 kts | 126° |
| 2026-05-07 11:56 | 56.56224 | 42.07149 | 32905 ft | 446 kts | 126° |
| 2026-05-07 11:57 | 56.52816 | 42.16418 | 32904 ft | 446 kts | 126° |
| 2026-05-07 11:57 | 56.49361 | 42.25779 | 32896 ft | 446 kts | 126° |
| 2026-05-07 11:58 | 56.45932 | 42.35029 | 32896 ft | 446 kts | 126° |
| 2026-05-07 11:58 | 56.42485 | 42.44300 | 32904 ft | 446 kts | 126° |
| 2026-05-07 11:59 | 56.39026 | 42.53556 | 32916 ft | 446 kts | 126° |
| 2026-05-07 11:59 | 56.35569 | 42.62779 | 32916 ft | 446 kts | 126° |
| 2026-05-07 12:00 | 56.32083 | 42.72061 | 32915 ft | 446 kts | 127° |
| 2026-05-07 12:00 | 56.28577 | 42.81366 | 32919 ft | 446 kts | 127° |
| 2026-05-07 12:01 | 56.25030 | 42.90726 | 32915 ft | 446 kts | 127° |
| 2026-05-07 12:01 | 56.21464 | 43.00100 | 32911 ft | 446 kts | 127° |
| 2026-05-07 12:02 | 56.17889 | 43.09466 | 32918 ft | 446 kts | 127° |
| 2026-05-07 12:02 | 56.14383 | 43.18606 | 32922 ft | 446 kts | 127° |
| 2026-05-07 12:03 | 56.11070 | 43.27935 | 33028 ft | 448 kts | 123° |
| 2026-05-07 12:03 | 56.09456 | 43.32712 | 33416 ft | 445 kts | 123° |
| 2026-05-07 12:03 | 56.07877 | 43.37387 | 33818 ft | 441 kts | 123° |
| 2026-05-07 12:03 | 56.06287 | 43.42075 | 34153 ft | 439 kts | 123° |
| 2026-05-07 12:04 | 56.04724 | 43.46682 | 34434 ft | 438 kts | 123° |
| 2026-05-07 12:04 | 56.03135 | 43.51355 | 34696 ft | 438 kts | 123° |
| 2026-05-07 12:04 | 56.01572 | 43.55946 | 34891 ft | 438 kts | 123° |
| 2026-05-07 12:05 | 55.98409 | 43.65207 | 34918 ft | 437 kts | 123° |
| 2026-05-07 12:05 | 55.95244 | 43.74463 | 34914 ft | 437 kts | 123° |
| 2026-05-07 12:06 | 55.92070 | 43.83705 | 34913 ft | 437 kts | 124° |
| 2026-05-07 12:06 | 55.88900 | 43.92873 | 34935 ft | 437 kts | 124° |
| 2026-05-07 12:07 | 55.85687 | 44.02053 | 34942 ft | 437 kts | 124° |
| 2026-05-07 12:07 | 55.82470 | 44.11250 | 34932 ft | 437 kts | 124° |
| 2026-05-07 12:08 | 55.79265 | 44.20398 | 34958 ft | 437 kts | 124° |
| 2026-05-07 12:08 | 55.76046 | 44.29570 | 34945 ft | 437 kts | 124° |
| 2026-05-07 12:09 | 55.72843 | 44.38663 | 34954 ft | 437 kts | 124° |
| 2026-05-07 12:09 | 55.69622 | 44.47773 | 34951 ft | 436 kts | 123° |
| 2026-05-07 12:10 | 55.66403 | 44.56844 | 34954 ft | 436 kts | 123° |
| 2026-05-07 12:10 | 55.63182 | 44.65886 | 34946 ft | 436 kts | 124° |
| 2026-05-07 12:11 | 55.59953 | 44.74951 | 34972 ft | 435 kts | 124° |
| 2026-05-07 12:11 | 55.56730 | 44.83953 | 34961 ft | 435 kts | 124° |
| 2026-05-07 12:12 | 55.53484 | 44.92970 | 34959 ft | 435 kts | 124° |
| 2026-05-07 12:12 | 55.50253 | 45.01911 | 34974 ft | 435 kts | 124° |
| 2026-05-07 12:13 | 55.47001 | 45.10874 | 34967 ft | 435 kts | 124° |
| 2026-05-07 12:13 | 55.43746 | 45.19819 | 34964 ft | 434 kts | 124° |
| 2026-05-07 12:14 | 55.40483 | 45.28747 | 34965 ft | 433 kts | 124° |
| 2026-05-07 12:14 | 55.37220 | 45.37644 | 34975 ft | 433 kts | 124° |
| 2026-05-07 12:15 | 55.33976 | 45.46458 | 34968 ft | 433 kts | 124° |
| 2026-05-07 12:15 | 55.30710 | 45.55293 | 34973 ft | 432 kts | 123° |
| 2026-05-07 12:16 | 55.27441 | 45.64118 | 34971 ft | 433 kts | 123° |
| 2026-05-07 12:16 | 55.24166 | 45.72935 | 34957 ft | 432 kts | 124° |
| 2026-05-07 12:17 | 55.20889 | 45.81733 | 34973 ft | 432 kts | 124° |
| 2026-05-07 12:17 | 55.17597 | 45.90537 | 34976 ft | 432 kts | 124° |
| 2026-05-07 12:18 | 55.14301 | 45.99293 | 34980 ft | 431 kts | 124° |
| 2026-05-07 12:18 | 55.11020 | 46.07992 | 34977 ft | 431 kts | 124° |
| 2026-05-07 12:19 | 55.07701 | 46.16759 | 34973 ft | 431 kts | 124° |
| 2026-05-07 12:19 | 55.04416 | 46.25391 | 34970 ft | 431 kts | 124° |
| 2026-05-07 12:20 | 55.01096 | 46.34093 | 34953 ft | 430 kts | 123° |
| 2026-05-07 12:20 | 54.97787 | 46.42739 | 34972 ft | 430 kts | 123° |
| 2026-05-07 12:21 | 54.94468 | 46.51389 | 34968 ft | 430 kts | 123° |
| 2026-05-07 12:21 | 54.91124 | 46.60057 | 34972 ft | 430 kts | 123° |
| 2026-05-07 12:22 | 54.87800 | 46.68623 | 34966 ft | 429 kts | 124° |
| 2026-05-07 12:22 | 54.84467 | 46.77169 | 34950 ft | 429 kts | 124° |
| 2026-05-07 12:23 | 54.81131 | 46.85722 | 34923 ft | 429 kts | 124° |
| 2026-05-07 12:23 | 54.77790 | 46.94272 | 34918 ft | 429 kts | 124° |
| 2026-05-07 12:24 | 54.74428 | 47.02844 | 34988 ft | 429 kts | 124° |
| 2026-05-07 12:24 | 54.71087 | 47.11327 | 34979 ft | 429 kts | 124° |
| 2026-05-07 12:25 | 54.67716 | 47.19860 | 34992 ft | 429 kts | 124° |
| 2026-05-07 12:25 | 54.64358 | 47.28339 | 34969 ft | 429 kts | 124° |
| 2026-05-07 12:26 | 54.60999 | 47.36786 | 35004 ft | 429 kts | 124° |
| 2026-05-07 12:26 | 54.57652 | 47.45177 | 34932 ft | 428 kts | 123° |
| 2026-05-07 12:27 | 54.54277 | 47.53615 | 34956 ft | 428 kts | 123° |
| 2026-05-07 12:27 | 54.50902 | 47.62018 | 35014 ft | 428 kts | 124° |
| 2026-05-07 12:28 | 54.47536 | 47.70381 | 34964 ft | 427 kts | 124° |
| 2026-05-07 12:28 | 54.44151 | 47.78782 | 34900 ft | 427 kts | 124° |
| 2026-05-07 12:29 | 54.40782 | 47.87096 | 34953 ft | 427 kts | 124° |
| 2026-05-07 12:29 | 54.37391 | 47.95441 | 34945 ft | 427 kts | 124° |
| 2026-05-07 12:30 | 54.33980 | 48.03791 | 34913 ft | 427 kts | 124° |
| 2026-05-07 12:30 | 54.30529 | 48.12224 | 34932 ft | 427 kts | 124° |
| 2026-05-07 12:31 | 54.27104 | 48.20552 | 34962 ft | 427 kts | 124° |
| 2026-05-07 12:31 | 54.23856 | 48.29057 | 34969 ft | 427 kts | 122° |
| 2026-05-07 12:32 | 54.20673 | 48.37586 | 34902 ft | 426 kts | 121° |
| 2026-05-07 12:32 | 54.17466 | 48.46162 | 34948 ft | 426 kts | 122° |
| 2026-05-07 12:33 | 54.12702 | 48.58851 | 34918 ft | 426 kts | 121° |
| 2026-05-07 12:33 | 54.09486 | 48.67388 | 34950 ft | 427 kts | 122° |
| 2026-05-07 12:34 | 54.06292 | 48.75862 | 34925 ft | 426 kts | 122° |
| 2026-05-07 12:34 | 54.03076 | 48.84349 | 34937 ft | 427 kts | 122° |
| 2026-05-07 12:35 | 53.99864 | 48.92791 | 34911 ft | 427 kts | 122° |
| 2026-05-07 12:35 | 53.96641 | 49.01228 | 34911 ft | 426 kts | 122° |
| 2026-05-07 12:36 | 53.93406 | 49.09666 | 34898 ft | 426 kts | 122° |
| 2026-05-07 12:36 | 53.90186 | 49.18039 | 34913 ft | 426 kts | 122° |
| 2026-05-07 12:37 | 53.86926 | 49.26428 | 34899 ft | 426 kts | 122° |
| 2026-05-07 12:37 | 53.83664 | 49.34801 | 34902 ft | 426 kts | 122° |
| 2026-05-07 12:38 | 53.80407 | 49.43166 | 34905 ft | 426 kts | 122° |
| 2026-05-07 12:38 | 53.77169 | 49.51469 | 34909 ft | 426 kts | 122° |
| 2026-05-07 12:39 | 53.73900 | 49.59832 | 34902 ft | 426 kts | 122° |
| 2026-05-07 12:39 | 53.70655 | 49.68109 | 34920 ft | 426 kts | 123° |
| 2026-05-07 12:40 | 53.67387 | 49.76438 | 34893 ft | 425 kts | 123° |
| 2026-05-07 12:40 | 53.64139 | 49.84679 | 34871 ft | 425 kts | 123° |
| 2026-05-07 12:41 | 53.60862 | 49.92961 | 34882 ft | 425 kts | 123° |
| 2026-05-07 12:41 | 53.57595 | 50.01187 | 34879 ft | 425 kts | 123° |
| 2026-05-07 12:42 | 53.54326 | 50.09388 | 34872 ft | 425 kts | 123° |
| 2026-05-07 12:42 | 53.51234 | 50.17855 | 34873 ft | 424 kts | 117° |
| 2026-05-07 12:43 | 53.48737 | 50.26781 | 34878 ft | 424 kts | 111° |
| 2026-05-07 12:43 | 53.46512 | 50.35862 | 34862 ft | 424 kts | 111° |
| 2026-05-07 12:44 | 53.44265 | 50.44992 | 34882 ft | 424 kts | 111° |
| 2026-05-07 12:44 | 53.42024 | 50.54055 | 34874 ft | 424 kts | 111° |
| 2026-05-07 12:45 | 53.39763 | 50.63160 | 34879 ft | 424 kts | 111° |
| 2026-05-07 12:45 | 53.37510 | 50.72218 | 34880 ft | 423 kts | 111° |
| 2026-05-07 12:46 | 53.35251 | 50.81273 | 34886 ft | 423 kts | 112° |
| 2026-05-07 12:46 | 53.32966 | 50.90364 | 34886 ft | 423 kts | 112° |
| 2026-05-07 12:47 | 53.30682 | 50.99416 | 34883 ft | 423 kts | 112° |
| 2026-05-07 12:47 | 53.28397 | 51.08436 | 34883 ft | 423 kts | 111° |
| 2026-05-07 12:48 | 53.26119 | 51.17390 | 34874 ft | 423 kts | 112° |
| 2026-05-07 12:48 | 53.23805 | 51.26443 | 34880 ft | 423 kts | 111° |
| 2026-05-07 12:49 | 53.21510 | 51.35391 | 34875 ft | 423 kts | 112° |
| 2026-05-07 12:49 | 53.19193 | 51.44392 | 34871 ft | 423 kts | 112° |
| 2026-05-07 12:50 | 53.16873 | 51.53360 | 34866 ft | 423 kts | 111° |
| 2026-05-07 12:50 | 53.14557 | 51.62285 | 34855 ft | 423 kts | 112° |
| 2026-05-07 12:51 | 53.12229 | 51.71226 | 34859 ft | 423 kts | 112° |
| 2026-05-07 12:51 | 53.09887 | 51.80202 | 34849 ft | 423 kts | 112° |
| 2026-05-07 12:52 | 53.07547 | 51.89114 | 34862 ft | 423 kts | 112° |
| 2026-05-07 12:52 | 53.05192 | 51.98043 | 34877 ft | 422 kts | 112° |
| 2026-05-07 12:53 | 53.02840 | 52.06929 | 34884 ft | 422 kts | 112° |
| 2026-05-07 12:53 | 53.00470 | 52.15855 | 34885 ft | 422 kts | 112° |
| 2026-05-07 12:54 | 52.98107 | 52.24712 | 34883 ft | 422 kts | 112° |
| 2026-05-07 12:54 | 52.95728 | 52.33588 | 34877 ft | 422 kts | 112° |
| 2026-05-07 12:55 | 52.93985 | 52.40068 | 34891 ft | 422 kts | 112° |
| 2026-05-07 12:55 | 52.91048 | 52.50954 | 34877 ft | 422 kts | 113° |
| 2026-05-07 12:56 | 52.88649 | 52.59768 | 34879 ft | 422 kts | 113° |
| 2026-05-07 12:56 | 52.86224 | 52.68595 | 34889 ft | 422 kts | 114° |
| 2026-05-07 12:57 | 52.83817 | 52.77390 | 34886 ft | 422 kts | 114° |
| 2026-05-07 12:57 | 52.81395 | 52.86217 | 34883 ft | 422 kts | 114° |
| 2026-05-07 12:58 | 52.78977 | 52.95007 | 34880 ft | 422 kts | 114° |
| 2026-05-07 12:58 | 52.76554 | 53.03777 | 34877 ft | 422 kts | 114° |
| 2026-05-07 12:59 | 52.74128 | 53.12526 | 34887 ft | 421 kts | 114° |
| 2026-05-07 12:59 | 52.71692 | 53.21287 | 34886 ft | 422 kts | 114° |
| 2026-05-07 13:00 | 52.69254 | 53.30019 | 34888 ft | 422 kts | 114° |
| 2026-05-07 13:00 | 52.66786 | 53.38811 | 34891 ft | 422 kts | 114° |
| 2026-05-07 13:01 | 52.64334 | 53.47521 | 34853 ft | 421 kts | 114° |
| 2026-05-07 13:01 | 52.61874 | 53.56232 | 34863 ft | 421 kts | 114° |
| 2026-05-07 13:02 | 52.59419 | 53.64892 | 34878 ft | 422 kts | 114° |
| 2026-05-07 13:02 | 52.56946 | 53.73606 | 34874 ft | 421 kts | 115° |
| 2026-05-07 13:03 | 52.54466 | 53.82306 | 34855 ft | 421 kts | 115° |
| 2026-05-07 13:03 | 52.51986 | 53.90968 | 34886 ft | 421 kts | 115° |
| 2026-05-07 13:04 | 52.49473 | 53.99701 | 34793 ft | 421 kts | 115° |
| 2026-05-07 13:04 | 52.46976 | 54.08348 | 34862 ft | 421 kts | 115° |
| 2026-05-07 13:05 | 52.44484 | 54.16945 | 34905 ft | 422 kts | 115° |
| 2026-05-07 13:05 | 52.41972 | 54.25581 | 34876 ft | 421 kts | 115° |
| 2026-05-07 13:06 | 52.39445 | 54.34235 | 34918 ft | 421 kts | 115° |
| 2026-05-07 13:06 | 52.36919 | 54.42849 | 34866 ft | 421 kts | 115° |
| 2026-05-07 13:07 | 52.34406 | 54.51403 | 34887 ft | 421 kts | 115° |
| 2026-05-07 13:07 | 52.31858 | 54.60036 | 34864 ft | 421 kts | 115° |
| 2026-05-07 13:08 | 52.29325 | 54.68589 | 34860 ft | 421 kts | 116° |
| 2026-05-07 13:08 | 52.26785 | 54.77151 | 34800 ft | 421 kts | 116° |
| 2026-05-07 13:09 | 52.24231 | 54.85732 | 34883 ft | 422 kts | 116° |
| 2026-05-07 13:09 | 52.21668 | 54.94297 | 34837 ft | 421 kts | 116° |
| 2026-05-07 13:10 | 52.19096 | 55.02854 | 34785 ft | 421 kts | 116° |
| 2026-05-07 13:10 | 52.16547 | 55.11312 | 34862 ft | 420 kts | 116° |
| 2026-05-07 13:11 | 52.13967 | 55.19840 | 34923 ft | 419 kts | 117° |
| 2026-05-07 13:11 | 52.11390 | 55.28324 | 34829 ft | 420 kts | 116° |
| 2026-05-07 13:12 | 52.08797 | 55.36830 | 34847 ft | 419 kts | 116° |
| 2026-05-07 13:12 | 52.06224 | 55.45238 | 34891 ft | 418 kts | 116° |
| 2026-05-07 13:13 | 52.03641 | 55.53664 | 34892 ft | 418 kts | 117° |
| 2026-05-07 13:13 | 52.01050 | 55.62074 | 34894 ft | 416 kts | 117° |
| 2026-05-07 13:14 | 51.98465 | 55.70447 | 34886 ft | 417 kts | 117° |
| 2026-05-07 13:14 | 51.97177 | 55.74617 | 34660 ft | 416 kts | 117° |
| 2026-05-07 13:14 | 51.95890 | 55.78772 | 34553 ft | 413 kts | 117° |
| 2026-05-07 13:15 | 51.94608 | 55.82905 | 34350 ft | 410 kts | 117° |
| 2026-05-07 13:15 | 51.93345 | 55.86959 | 34021 ft | 405 kts | 117° |
| 2026-05-07 13:15 | 51.92077 | 55.91023 | 33737 ft | 404 kts | 117° |
| 2026-05-07 13:15 | 51.90808 | 55.95082 | 33545 ft | 403 kts | 117° |
| 2026-05-07 13:16 | 51.89561 | 55.99070 | 33293 ft | 402 kts | 117° |
| 2026-05-07 13:16 | 51.88287 | 56.03092 | 33057 ft | 403 kts | 117° |
| 2026-05-07 13:16 | 51.87017 | 56.07098 | 32823 ft | 404 kts | 117° |
| 2026-05-07 13:16 | 51.85741 | 56.11129 | 32550 ft | 404 kts | 117° |
| 2026-05-07 13:17 | 51.84461 | 56.15158 | 32244 ft | 406 kts | 117° |
| 2026-05-07 13:17 | 51.83166 | 56.19244 | 31761 ft | 407 kts | 116° |
| 2026-05-07 13:17 | 51.81882 | 56.23300 | 31130 ft | 408 kts | 116° |
| 2026-05-07 13:17 | 51.80608 | 56.27306 | 30506 ft | 408 kts | 116° |
| 2026-05-07 13:18 | 51.79322 | 56.31358 | 29824 ft | 408 kts | 116° |
| 2026-05-07 13:18 | 51.78024 | 56.35448 | 29255 ft | 404 kts | 116° |
| 2026-05-07 13:18 | 51.76759 | 56.39439 | 28785 ft | 399 kts | 116° |
| 2026-05-07 13:18 | 51.75507 | 56.43374 | 28302 ft | 395 kts | 116° |
| 2026-05-07 13:19 | 51.74268 | 56.47256 | 27840 ft | 390 kts | 116° |
| 2026-05-07 13:19 | 51.73043 | 56.51089 | 27394 ft | 386 kts | 116° |
| 2026-05-07 13:19 | 51.71816 | 56.54922 | 26917 ft | 382 kts | 116° |
| 2026-05-07 13:19 | 51.70613 | 56.58679 | 26455 ft | 379 kts | 116° |
| 2026-05-07 13:20 | 51.69411 | 56.62422 | 25974 ft | 376 kts | 116° |
| 2026-05-07 13:20 | 51.68216 | 56.66135 | 25512 ft | 372 kts | 117° |
| 2026-05-07 13:20 | 51.67039 | 56.69804 | 25073 ft | 370 kts | 117° |
| 2026-05-07 13:20 | 51.65859 | 56.73479 | 24584 ft | 368 kts | 117° |
| 2026-05-07 13:21 | 51.64688 | 56.77113 | 24110 ft | 367 kts | 117° |
| 2026-05-07 13:21 | 51.63517 | 56.80732 | 23609 ft | 366 kts | 117° |
| 2026-05-07 13:21 | 51.62346 | 56.84345 | 23133 ft | 364 kts | 117° |
| 2026-05-07 13:21 | 51.61201 | 56.87886 | 22718 ft | 362 kts | 117° |
| 2026-05-07 13:22 | 51.60035 | 56.91487 | 22295 ft | 359 kts | 118° |
| 2026-05-07 13:22 | 51.58888 | 56.95017 | 21870 ft | 356 kts | 118° |
| 2026-05-07 13:22 | 51.57756 | 56.98479 | 21479 ft | 354 kts | 118° |
| 2026-05-07 13:22 | 51.56619 | 57.01970 | 21038 ft | 352 kts | 118° |
| 2026-05-07 13:23 | 51.55490 | 57.05427 | 20628 ft | 350 kts | 118° |
| 2026-05-07 13:23 | 51.54353 | 57.08900 | 20199 ft | 347 kts | 118° |
| 2026-05-07 13:23 | 51.53247 | 57.12275 | 19778 ft | 346 kts | 118° |
| 2026-05-07 13:23 | 51.52124 | 57.15699 | 19348 ft | 344 kts | 118° |
| 2026-05-07 13:24 | 51.51017 | 57.19071 | 18924 ft | 342 kts | 118° |
| 2026-05-07 13:24 | 51.49925 | 57.22394 | 18522 ft | 340 kts | 119° |
| 2026-05-07 13:24 | 51.48830 | 57.25724 | 18097 ft | 338 kts | 119° |
| 2026-05-07 13:24 | 51.47733 | 57.29050 | 17673 ft | 336 kts | 119° |
| 2026-05-07 13:25 | 51.46644 | 57.32344 | 17264 ft | 334 kts | 120° |
| 2026-05-07 13:25 | 51.45557 | 57.35625 | 16840 ft | 333 kts | 119° |
| 2026-05-07 13:25 | 51.44481 | 57.38868 | 16424 ft | 331 kts | 119° |
| 2026-05-07 13:25 | 51.43413 | 57.42084 | 16017 ft | 329 kts | 119° |
| 2026-05-07 13:26 | 51.42325 | 57.45361 | 15611 ft | 327 kts | 119° |
| 2026-05-07 13:26 | 51.41260 | 57.48569 | 15190 ft | 325 kts | 119° |
| 2026-05-07 13:26 | 51.40205 | 57.51734 | 14776 ft | 324 kts | 119° |
| 2026-05-07 13:26 | 51.39159 | 57.54881 | 14367 ft | 322 kts | 119° |
| 2026-05-07 13:27 | 51.38106 | 57.58040 | 13955 ft | 321 kts | 120° |
| 2026-05-07 13:27 | 51.37060 | 57.61165 | 13548 ft | 320 kts | 119° |
| 2026-05-07 13:27 | 51.36013 | 57.64294 | 13142 ft | 318 kts | 119° |
| 2026-05-07 13:27 | 51.34981 | 57.67382 | 12758 ft | 316 kts | 120° |
| 2026-05-07 13:28 | 51.33947 | 57.70481 | 12361 ft | 314 kts | 120° |
| 2026-05-07 13:28 | 51.32919 | 57.73549 | 11980 ft | 312 kts | 120° |
| 2026-05-07 13:28 | 51.31907 | 57.76565 | 11583 ft | 311 kts | 120° |
| 2026-05-07 13:28 | 51.30890 | 57.79583 | 11186 ft | 309 kts | 120° |
| 2026-05-07 13:29 | 51.29874 | 57.82600 | 10779 ft | 308 kts | 120° |
| 2026-05-07 13:29 | 51.28872 | 57.85575 | 10416 ft | 305 kts | 120° |
| 2026-05-07 13:29 | 51.27866 | 57.88553 | 10124 ft | 299 kts | 120° |
| 2026-05-07 13:29 | 51.26911 | 57.91376 | 10057 ft | 284 kts | 121° |
| 2026-05-07 13:30 | 51.25986 | 57.94087 | 9987 ft | 270 kts | 120° |
| 2026-05-07 13:30 | 51.25108 | 57.96655 | 9916 ft | 259 kts | 121° |
| 2026-05-07 13:30 | 51.24259 | 57.99146 | 9679 ft | 259 kts | 121° |
| 2026-05-07 13:30 | 51.23401 | 58.01656 | 9379 ft | 256 kts | 121° |
| 2026-05-07 13:31 | 51.22548 | 58.04143 | 9077 ft | 254 kts | 121° |
| 2026-05-07 13:31 | 51.21710 | 58.06583 | 8741 ft | 253 kts | 121° |
| 2026-05-07 13:31 | 51.20871 | 58.09017 | 8444 ft | 251 kts | 121° |
| 2026-05-07 13:31 | 51.20035 | 58.11447 | 8142 ft | 251 kts | 120° |
| 2026-05-07 13:32 | 51.19199 | 58.13885 | 7813 ft | 250 kts | 121° |
| 2026-05-07 13:32 | 51.18364 | 58.16315 | 7511 ft | 248 kts | 121° |
| 2026-05-07 13:32 | 51.17539 | 58.18708 | 7196 ft | 247 kts | 120° |
| 2026-05-07 13:32 | 51.16679 | 58.21176 | 6895 ft | 261 kts | 120° |
| 2026-05-07 13:33 | 51.15797 | 58.23680 | 6584 ft | 262 kts | 120° |
| 2026-05-07 13:33 | 51.14896 | 58.26215 | 6291 ft | 262 kts | 121° |
| 2026-05-07 13:33 | 51.14012 | 58.28714 | 6000 ft | 260 kts | 121° |
| 2026-05-07 13:33 | 51.13140 | 58.31218 | 5707 ft | 259 kts | 120° |
| 2026-05-07 13:34 | 51.12266 | 58.33722 | 5416 ft | 258 kts | 120° |
| 2026-05-07 13:34 | 51.10519 | 58.38679 | 4830 ft | 257 kts | 120° |
| 2026-05-07 13:34 | 51.09671 | 58.41159 | 4521 ft | 257 kts | 119° |
| 2026-05-07 13:35 | 51.08815 | 58.43658 | 4201 ft | 254 kts | 119° |
| 2026-05-07 13:35 | 51.07962 | 58.46134 | 3881 ft | 251 kts | 119° |
| 2026-05-07 13:35 | 51.07135 | 58.48519 | 3566 ft | 248 kts | 119° |
| 2026-05-07 13:35 | 51.06453 | 58.51020 | 3227 ft | 247 kts | 101° |
| 2026-05-07 13:36 | 51.06591 | 58.53766 | 2892 ft | 248 kts | 70° |
| 2026-05-07 13:36 | 51.07604 | 58.55947 | 2690 ft | 244 kts | 37° |
| 2026-05-07 13:36 | 51.09135 | 58.56876 | 2634 ft | 237 kts | 0° |
| 2026-05-07 13:36 | 51.10635 | 58.56025 | 2508 ft | 236 kts | 316° |
| 2026-05-07 13:37 | 51.11450 | 58.53831 | 2519 ft | 234 kts | 275° |
| 2026-05-07 13:37 | 51.11308 | 58.51286 | 2588 ft | 233 kts | 256° |
| 2026-05-07 13:37 | 51.10997 | 58.48732 | 2642 ft | 235 kts | 257° |
| 2026-05-07 13:37 | 51.10721 | 58.46224 | 2653 ft | 222 kts | 258° |
| 2026-05-07 13:38 | 51.10467 | 58.43850 | 2672 ft | 219 kts | 258° |
| 2026-05-07 13:38 | 51.10217 | 58.41501 | 2768 ft | 205 kts | 256° |
| 2026-05-07 13:38 | 51.09652 | 58.39560 | 2643 ft | 185 kts | 221° |
| 2026-05-07 13:38 | 51.08630 | 58.38681 | 2512 ft | 158 kts | 189° |
| 2026-05-07 13:39 | 51.07571 | 58.38675 | 2511 ft | 152 kts | 167° |
| 2026-05-07 13:39 | 51.06538 | 58.39086 | 2533 ft | 154 kts | 164° |
| 2026-05-07 13:39 | 51.05495 | 58.39521 | 2510 ft | 154 kts | 163° |
| 2026-05-07 13:39 | 51.04649 | 58.40346 | 2420 ft | 143 kts | 117° |
| 2026-05-07 13:40 | 51.04557 | 58.41909 | 2485 ft | 148 kts | 84° |
| 2026-05-07 13:40 | 51.04805 | 58.43506 | 2494 ft | 150 kts | 76° |
| 2026-05-07 13:40 | 51.05101 | 58.45080 | 2434 ft | 148 kts | 76° |
| 2026-05-07 13:40 | 51.05361 | 58.46660 | 2229 ft | 148 kts | 79° |
| 2026-05-07 13:41 | 51.05596 | 58.48261 | 2053 ft | 147 kts | 79° |
| 2026-05-07 13:41 | 51.05826 | 58.49862 | 1859 ft | 150 kts | 79° |
| 2026-05-07 13:41 | 51.06062 | 58.51484 | 1680 ft | 150 kts | 79° |
| 2026-05-07 13:41 | 51.06297 | 58.53083 | 1484 ft | 150 kts | 79° |
| 2026-05-07 13:42 | 51.06537 | 58.54710 | 1297 ft | 149 kts | 79° |
| 2026-05-07 13:42 | 51.06769 | 58.56307 | 1063 ft | 149 kts | 78° |
| 2026-05-07 13:42 | 51.07001 | 58.57849 | 905 ft | 135 kts | 77° |
| 2026-05-07 13:42 | 51.07171 | 58.59028 | 892 ft | 71 kts | 75° |
| 2026-05-07 13:43 | 51.07231 | 58.59430 | 892 ft | 18 kts | 75° |
| 2026-05-07 13:43 | 51.07305 | 58.59502 | 892 ft | 12 kts | 352° |
| 2026-05-07 13:43 | 51.07368 | 58.59483 | 891 ft | 0 kts | 347° |
| 2026-05-07 13:44 | 51.07369 | 58.59483 | 891 ft | 0 kts | 347° |
| 2026-05-07 13:44 | 51.07372 | 58.59481 | 891 ft | 1 kts | 347° |
| 2026-05-07 13:44 | 51.07396 | 58.59473 | 890 ft | 5 kts | 347° |
| 2026-05-07 13:45 | 51.07445 | 58.59454 | 889 ft | 9 kts | 345° |
| 2026-05-07 13:45 | 51.07518 | 58.59426 | 888 ft | 11 kts | 346° |
| 2026-05-07 13:45 | 51.07588 | 58.59409 | 887 ft | 9 kts | 3° |
| 2026-05-07 13:45 | 51.07614 | 58.59405 | 886 ft | 0 kts | 346° |
| 2026-05-07 13:46 | 51.07623 | 58.59402 | 886 ft | 0 kts | 345° |